createdAt,value
2023-02-19T00:00:06.697Z,34.90
2023-02-19T00:02:57.130Z,34.73
2023-02-19T00:05:25.485Z,35.16
2023-02-19T00:07:55.874Z,34.66
2023-02-19T00:10:24.275Z,34.82
2023-02-19T00:12:53.279Z,35.16
2023-02-19T00:15:21.719Z,35.37
2023-02-19T00:17:50.288Z,35.16
2023-02-19T00:20:19.169Z,35.41
2023-02-19T00:22:47.676Z,35.31
2023-02-19T00:25:17.963Z,35.06
2023-02-19T00:27:46.573Z,35.32
2023-02-19T00:30:15.450Z,35.74
2023-02-19T00:32:44.159Z,35.83
2023-02-19T00:35:12.772Z,35.69
2023-02-19T00:37:41.525Z,35.82
2023-02-19T00:40:10.822Z,35.85
2023-02-19T00:42:41.277Z,35.38
2023-02-19T00:45:10.151Z,35.87
2023-02-19T00:47:39.008Z,35.81
2023-02-19T00:50:07.553Z,35.75
2023-02-19T00:52:37.562Z,35.74
2023-02-19T00:55:06.667Z,35.40
2023-02-19T00:57:35.094Z,35.54
2023-02-19T01:00:06.886Z,35.31
2023-02-19T01:02:35.637Z,35.24
2023-02-19T01:05:05.859Z,34.97
2023-02-19T01:07:36.828Z,35.43
2023-02-19T01:10:05.756Z,35.46
2023-02-19T01:12:34.616Z,35.90
2023-02-19T01:15:04.983Z,35.67
2023-02-19T01:17:33.625Z,36.46
2023-02-19T01:20:01.939Z,36.49
2023-02-19T01:22:30.989Z,36.84
2023-02-19T01:24:59.170Z,36.75
2023-02-19T01:27:27.983Z,37.18
2023-02-19T01:29:56.176Z,37.34
2023-02-19T01:32:26.355Z,36.68
2023-02-19T01:34:54.521Z,37.26
2023-02-19T01:37:22.963Z,37.19
2023-02-19T01:39:51.601Z,37.03
2023-02-19T01:42:20.157Z,37.27
2023-02-19T01:45:25.253Z,35.99
2023-02-19T01:48:00.745Z,36.33
2023-02-19T01:50:31.493Z,37.08
2023-02-19T01:53:00.960Z,37.20
2023-02-19T01:55:29.460Z,36.98
2023-02-19T01:57:58.021Z,37.34
2023-02-19T02:00:27.038Z,36.99
2023-02-19T02:02:58.262Z,36.77
2023-02-19T02:05:36.651Z,36.04
2023-02-19T02:08:23.457Z,36.99
2023-02-19T02:10:52.646Z,36.88
2023-02-19T02:13:21.198Z,36.87
2023-02-19T02:15:54.609Z,36.42
2023-02-19T02:18:35.748Z,36.07
2023-02-19T02:21:44.655Z,35.87
2023-02-19T02:24:22.977Z,36.68
2023-02-19T02:26:59.954Z,36.38
2023-02-19T02:29:57.290Z,35.98
2023-02-19T02:32:28.583Z,36.70
2023-02-19T02:35:01.359Z,36.86
2023-02-19T02:37:32.045Z,37.06
2023-02-19T02:40:00.780Z,37.15
2023-02-19T02:42:29.307Z,37.14
2023-02-19T02:45:26.300Z,36.55
2023-02-19T02:47:56.236Z,36.91
2023-02-19T02:50:27.735Z,37.14
2023-02-19T02:53:18.212Z,36.49
2023-02-19T02:55:49.877Z,36.76
2023-02-19T02:58:18.046Z,35.53
2023-02-19T03:01:10.563Z,36.54
2023-02-19T03:03:40.056Z,36.78
2023-02-19T03:06:09.692Z,36.74
2023-02-19T03:08:40.912Z,36.64
2023-02-19T03:11:29.241Z,36.34
2023-02-19T03:14:18.598Z,36.30
2023-02-19T03:17:07.449Z,36.18
2023-02-19T03:19:38.677Z,36.58
2023-02-19T03:22:10.974Z,36.16
2023-02-19T03:24:59.828Z,36.48
2023-02-19T03:27:30.771Z,36.71
2023-02-19T03:30:00.491Z,36.58
2023-02-19T03:32:32.834Z,36.66
2023-02-19T03:35:03.190Z,36.70
2023-02-19T03:37:40.896Z,36.75
2023-02-19T03:40:10.243Z,36.95
2023-02-19T03:42:45.110Z,36.13
2023-02-19T03:45:36.492Z,36.36
2023-02-19T03:48:33.115Z,36.03
2023-02-19T03:51:18.558Z,35.77
2023-02-19T03:53:53.901Z,36.30
2023-02-19T03:56:28.064Z,36.25
2023-02-19T03:58:59.199Z,36.52
2023-02-19T04:01:31.639Z,36.28
2023-02-19T04:04:05.244Z,35.90
2023-02-19T04:06:34.361Z,36.82
2023-02-19T04:09:05.067Z,36.50
2023-02-19T04:11:33.927Z,36.79
2023-02-19T04:14:05.758Z,36.47
2023-02-19T04:16:35.685Z,36.78
2023-02-19T04:19:07.991Z,36.79
2023-02-19T04:21:36.842Z,36.90
2023-02-19T04:24:10.409Z,36.63
2023-02-19T04:26:38.671Z,36.92
2023-02-19T04:29:07.386Z,37.03
2023-02-19T04:31:36.991Z,37.35
2023-02-19T04:34:06.919Z,36.74
2023-02-19T04:36:35.226Z,37.08
2023-02-19T04:39:03.955Z,37.11
2023-02-19T04:41:32.086Z,37.24
2023-02-19T04:44:00.697Z,37.54
2023-02-19T04:46:29.121Z,37.75
2023-02-19T04:48:57.830Z,37.54
2023-02-19T04:51:27.802Z,37.48
2023-02-19T04:53:56.867Z,37.79
2023-02-19T04:56:25.222Z,37.58
2023-02-19T04:58:53.916Z,37.65
2023-02-19T05:01:22.249Z,37.68
2023-02-19T05:03:50.915Z,38.04
2023-02-19T05:06:20.071Z,37.33
2023-02-19T05:08:50.231Z,37.60
2023-02-19T05:11:18.641Z,37.62
2023-02-19T05:13:47.169Z,37.52
2023-02-19T05:16:17.284Z,37.61
2023-02-19T05:18:47.283Z,37.71
2023-02-19T05:21:16.026Z,37.39
2023-02-19T05:23:44.793Z,37.46
2023-02-19T05:26:18.107Z,37.22
2023-02-19T05:28:47.520Z,37.90
2023-02-19T05:31:16.381Z,38.14
2023-02-19T05:33:48.272Z,37.88
2023-02-19T05:36:16.462Z,37.50
2023-02-19T05:38:44.930Z,37.66
2023-02-19T05:41:16.642Z,37.02
2023-02-19T05:43:46.753Z,37.24
2023-02-19T05:46:16.764Z,37.52
2023-02-19T05:48:45.541Z,37.64
2023-02-19T05:51:15.552Z,37.25
2023-02-19T05:53:45.157Z,37.53
2023-02-19T05:56:29.634Z,36.84
2023-02-19T05:58:58.458Z,37.92
2023-02-19T06:01:28.719Z,38.11
2023-02-19T06:03:57.965Z,38.14
2023-02-19T06:06:27.267Z,38.54
2023-02-19T06:08:56.096Z,38.41
2023-02-19T06:11:26.525Z,38.06
2023-02-19T06:13:55.103Z,38.45
2023-02-19T06:16:24.531Z,38.04
2023-02-19T06:18:53.417Z,38.23
2023-02-19T06:21:21.942Z,38.56
2023-02-19T06:23:50.531Z,38.33
2023-02-19T06:26:21.033Z,37.96
2023-02-19T06:28:52.305Z,38.18
2023-02-19T06:31:22.133Z,38.38
2023-02-19T06:33:51.673Z,38.16
2023-02-19T06:36:24.434Z,37.79
2023-02-19T06:38:53.306Z,38.03
2023-02-19T06:41:21.510Z,38.03
2023-02-19T06:43:51.409Z,38.17
2023-02-19T06:46:19.751Z,37.98
2023-02-19T06:48:48.522Z,38.08
2023-02-19T06:51:19.841Z,37.70
2023-02-19T06:53:48.377Z,37.90
2023-02-19T06:56:25.502Z,37.33
2023-02-19T06:58:57.076Z,37.87
2023-02-19T07:01:25.388Z,38.23
2023-02-19T07:03:54.196Z,38.35
2023-02-19T07:06:23.472Z,38.09
2023-02-19T07:08:52.977Z,38.13
2023-02-19T07:11:21.295Z,38.24
2023-02-19T07:13:49.751Z,38.42
2023-02-19T07:16:19.635Z,37.81
2023-02-19T07:18:48.173Z,38.26
2023-02-19T07:21:17.937Z,38.40
2023-02-19T07:23:47.242Z,38.37
2023-02-19T07:26:17.763Z,38.06
2023-02-19T07:28:47.612Z,38.21
2023-02-19T07:31:21.987Z,37.65
2023-02-19T07:33:51.462Z,38.04
2023-02-19T07:36:20.271Z,38.02
2023-02-19T07:38:49.046Z,37.87
2023-02-19T07:41:17.414Z,37.79
2023-02-19T07:43:46.004Z,38.29
2023-02-19T07:46:15.548Z,37.96
2023-02-19T07:48:45.947Z,37.76
2023-02-19T07:51:16.790Z,38.03
2023-02-19T07:53:46.058Z,38.11
2023-02-19T07:56:14.732Z,38.47
2023-02-19T07:58:44.226Z,38.35
2023-02-19T08:01:15.549Z,37.92
2023-02-19T08:03:45.264Z,37.64
2023-02-19T08:06:13.710Z,38.04
2023-02-19T08:08:42.772Z,37.86
2023-02-19T08:11:29.252Z,37.51
2023-02-19T08:13:58.368Z,36.99
2023-02-19T08:16:42.255Z,37.25
2023-02-19T08:19:13.320Z,36.70
2023-02-19T08:21:41.551Z,37.14
2023-02-19T08:24:10.494Z,37.34
2023-02-19T08:26:38.950Z,37.18
2023-02-19T08:29:07.946Z,37.05
2023-02-19T08:31:36.992Z,37.12
2023-02-19T08:34:05.595Z,37.07
2023-02-19T08:36:35.606Z,36.76
2023-02-19T08:39:04.156Z,37.07
2023-02-19T08:41:32.606Z,36.87
2023-02-19T08:44:01.364Z,37.06
2023-02-19T08:46:34.409Z,36.69
2023-02-19T08:49:03.318Z,37.13
2023-02-19T08:51:31.705Z,37.01
2023-02-19T08:54:03.698Z,37.01
2023-02-19T08:56:32.403Z,37.67
2023-02-19T08:59:01.147Z,37.27
2023-02-19T09:01:29.588Z,37.74
2023-02-19T09:03:58.345Z,38.00
2023-02-19T09:06:27.041Z,37.90
2023-02-19T09:08:55.834Z,37.71
2023-02-19T09:11:25.693Z,37.33
2023-02-19T09:13:57.209Z,37.42
2023-02-19T09:16:25.677Z,37.79
2023-02-19T09:18:54.516Z,37.87
2023-02-19T09:21:22.813Z,37.70
2023-02-19T09:23:51.369Z,37.84
2023-02-19T09:26:20.195Z,38.12
2023-02-19T09:28:50.055Z,38.11
2023-02-19T09:31:18.589Z,38.16
2023-02-19T09:33:48.619Z,38.11
2023-02-19T09:36:18.884Z,37.91
2023-02-19T09:38:47.600Z,38.25
2023-02-19T09:41:19.706Z,37.75
2023-02-19T09:43:49.622Z,38.11
2023-02-19T09:46:25.768Z,37.24
2023-02-19T09:48:56.575Z,37.87
2023-02-19T09:51:26.669Z,37.76
2023-02-19T09:53:56.222Z,37.54
2023-02-19T09:56:24.416Z,38.07
2023-02-19T09:58:56.622Z,37.25
2023-02-19T10:01:28.165Z,37.09
2023-02-19T10:03:56.997Z,37.27
2023-02-19T10:06:27.155Z,37.37
2023-02-19T10:08:58.290Z,37.09
2023-02-19T10:11:27.415Z,37.00
2023-02-19T10:14:04.414Z,36.46
2023-02-19T10:16:32.696Z,37.15
2023-02-19T10:19:02.325Z,36.71
2023-02-19T10:21:30.733Z,36.32
2023-02-19T10:24:01.565Z,35.39
2023-02-19T10:26:34.825Z,35.50
2023-02-19T10:29:05.460Z,35.10
2023-02-19T10:31:34.893Z,35.33
2023-02-19T10:34:04.601Z,35.07
2023-02-19T10:36:34.181Z,34.75
2023-02-19T10:39:29.132Z,34.33
2023-02-19T10:41:58.785Z,34.76
2023-02-19T10:44:30.409Z,34.33
2023-02-19T10:46:59.247Z,32.20
2023-02-19T10:49:30.624Z,33.03
2023-02-19T10:52:01.762Z,31.35
2023-02-19T10:54:32.529Z,29.92
2023-02-19T10:57:18.491Z,27.58
2023-02-19T10:59:52.829Z,26.98
2023-02-19T11:02:22.848Z,28.25
2023-02-19T11:05:06.352Z,28.22
2023-02-19T11:07:34.800Z,29.78
2023-02-19T11:10:04.851Z,29.84
2023-02-19T11:12:34.875Z,29.64
2023-02-19T11:15:21.431Z,29.13
2023-02-19T11:17:56.199Z,30.43
2023-02-19T11:20:25.301Z,31.18
2023-02-19T11:22:53.814Z,31.17
2023-02-19T11:25:25.774Z,31.05
2023-02-19T11:28:07.320Z,30.64
2023-02-19T11:30:42.659Z,30.80
2023-02-19T11:33:28.321Z,30.15
2023-02-19T11:36:22.043Z,29.45
2023-02-19T11:38:50.424Z,30.16
2023-02-19T11:41:25.842Z,29.51
2023-02-19T11:44:04.657Z,29.64
2023-02-19T11:46:43.231Z,29.55
2023-02-19T11:49:21.530Z,29.56
2023-02-19T11:52:01.078Z,29.53
2023-02-19T11:54:40.219Z,30.02
2023-02-19T11:57:15.484Z,29.98
2023-02-19T11:59:47.564Z,29.66
2023-02-19T12:02:32.883Z,29.84
2023-02-19T12:05:20.091Z,29.93
2023-02-19T12:08:19.060Z,29.99
2023-02-19T12:10:58.695Z,30.22
2023-02-19T12:13:33.460Z,30.52
2023-02-19T12:16:18.529Z,30.41
2023-02-19T12:19:10.608Z,30.43
2023-02-19T12:21:47.252Z,30.02
2023-02-19T12:24:54.551Z,30.57
2023-02-19T12:27:31.518Z,31.34
2023-02-19T12:30:21.620Z,31.10
2023-02-19T12:33:09.381Z,30.74
2023-02-19T12:35:53.595Z,30.61
2023-02-19T12:38:24.435Z,30.92
2023-02-19T12:41:14.572Z,30.13
2023-02-19T12:43:48.406Z,30.81
2023-02-19T12:46:21.705Z,31.33
2023-02-19T12:48:54.149Z,31.11
2023-02-19T12:51:28.213Z,31.48
2023-02-19T12:54:00.669Z,31.71
2023-02-19T12:56:32.448Z,31.86
2023-02-19T12:59:02.207Z,30.65
2023-02-19T13:01:34.803Z,31.43
2023-02-19T13:04:18.062Z,31.42
2023-02-19T13:06:53.133Z,31.80
2023-02-19T13:09:24.885Z,32.01
2023-02-19T13:11:57.879Z,32.01
2023-02-19T13:14:29.119Z,31.14
2023-02-19T13:17:02.307Z,30.34
2023-02-19T13:19:32.085Z,29.57
2023-02-19T13:22:24.119Z,29.33
2023-02-19T13:24:52.176Z,28.71
2023-02-19T13:27:54.937Z,29.14
2023-02-19T13:30:31.369Z,29.77
2023-02-19T13:33:04.820Z,29.69
2023-02-19T13:35:56.537Z,29.03
2023-02-19T13:38:27.081Z,29.87
2023-02-19T13:40:56.524Z,30.32
2023-02-19T13:43:27.157Z,30.08
2023-02-19T13:45:58.082Z,30.29
2023-02-19T13:48:27.619Z,29.39
2023-02-19T13:51:29.225Z,29.21
2023-02-19T13:54:02.733Z,29.99
2023-02-19T13:56:41.520Z,29.05
2023-02-19T13:59:29.435Z,28.58
2023-02-19T14:02:30.727Z,28.04
2023-02-19T14:05:02.396Z,28.44
2023-02-19T14:08:03.227Z,27.58
2023-02-19T14:10:57.875Z,27.39
2023-02-19T14:14:09.928Z,27.36
2023-02-19T14:16:56.570Z,27.42
2023-02-19T14:19:48.897Z,27.63
2023-02-19T14:23:03.187Z,27.31
2023-02-19T14:25:39.432Z,27.97
2023-02-19T14:28:17.125Z,28.15
2023-02-19T14:30:50.411Z,28.14
2023-02-19T14:33:22.494Z,28.15
2023-02-19T14:35:54.078Z,28.15
2023-02-19T14:38:25.027Z,28.62
2023-02-19T14:40:54.282Z,29.22
2023-02-19T14:43:26.314Z,29.08
2023-02-19T14:45:59.429Z,28.97
2023-02-19T14:48:31.438Z,29.30
2023-02-19T14:51:04.253Z,28.94
2023-02-19T14:53:38.231Z,28.99
2023-02-19T14:56:07.734Z,29.42
2023-02-19T14:58:37.152Z,29.38
2023-02-19T15:01:09.675Z,28.91
2023-02-19T15:03:42.162Z,29.04
2023-02-19T15:06:14.570Z,28.52
2023-02-19T15:08:45.436Z,28.63
2023-02-19T15:11:21.043Z,28.36
2023-02-19T15:13:53.247Z,28.46
2023-02-19T15:16:25.899Z,28.12
2023-02-19T15:18:55.309Z,28.50
2023-02-19T15:21:25.865Z,28.57
2023-02-19T15:23:55.844Z,28.96
2023-02-19T15:26:28.368Z,28.73
2023-02-19T15:29:01.720Z,28.50
2023-02-19T15:31:31.804Z,28.33
2023-02-19T15:34:00.566Z,28.49
2023-02-19T15:36:31.443Z,28.30
2023-02-19T15:39:00.799Z,27.06
2023-02-19T15:41:31.901Z,27.93
2023-02-19T15:44:09.116Z,27.79
2023-02-19T15:46:39.629Z,28.13
2023-02-19T15:49:11.041Z,27.60
2023-02-19T15:51:43.762Z,27.77
2023-02-19T15:54:19.074Z,27.77
2023-02-19T15:56:53.364Z,27.89
2023-02-19T15:59:26.625Z,28.00
2023-02-19T16:01:56.757Z,28.23
2023-02-19T16:04:25.554Z,28.34
2023-02-19T16:06:58.970Z,27.84
2023-02-19T16:09:31.929Z,28.24
2023-02-19T16:12:01.589Z,28.50
2023-02-19T16:14:32.023Z,28.34
2023-02-19T16:17:08.352Z,28.32
2023-02-19T16:19:45.811Z,28.38
2023-02-19T16:22:15.896Z,28.65
2023-02-19T16:24:47.016Z,28.33
2023-02-19T16:27:15.777Z,28.44
2023-02-19T16:29:51.814Z,28.15
2023-02-19T16:32:21.599Z,28.52
2023-02-19T16:34:51.839Z,28.55
2023-02-19T16:37:37.789Z,27.73
2023-02-19T16:40:41.849Z,27.66
2023-02-19T16:43:29.228Z,27.76
2023-02-19T16:45:58.519Z,28.46
2023-02-19T16:48:28.226Z,28.53
2023-02-19T16:50:57.176Z,28.34
2023-02-19T16:53:26.478Z,28.28
2023-02-19T16:55:55.272Z,28.55
2023-02-19T16:58:23.638Z,28.53
2023-02-19T17:00:52.717Z,28.53
2023-02-19T17:03:22.906Z,28.72
2023-02-19T17:05:53.832Z,28.55
2023-02-19T17:08:33.903Z,28.30
2023-02-19T17:11:04.374Z,28.67
2023-02-19T17:13:34.051Z,29.03
2023-02-19T17:16:03.096Z,29.03
2023-02-19T17:18:31.684Z,29.03
2023-02-19T17:21:06.037Z,28.86
2023-02-19T17:23:34.503Z,29.15
2023-02-19T17:26:03.486Z,29.16
2023-02-19T17:28:32.250Z,28.95
2023-02-19T17:31:01.402Z,29.32
2023-02-19T17:33:29.819Z,29.34
2023-02-19T17:35:58.612Z,29.44
2023-02-19T17:38:28.670Z,29.51
2023-02-19T17:40:57.543Z,29.63
2023-02-19T17:43:25.895Z,30.21
2023-02-19T17:45:54.823Z,29.98
2023-02-19T17:48:23.306Z,30.30
2023-02-19T17:50:52.400Z,30.30
2023-02-19T17:53:20.782Z,30.42
2023-02-19T17:55:50.774Z,30.59
2023-02-19T17:58:19.083Z,30.85
2023-02-19T18:00:47.755Z,30.98
2023-02-19T18:03:16.176Z,31.05
2023-02-19T18:05:45.013Z,30.87
2023-02-19T18:08:13.556Z,30.71
2023-02-19T18:10:42.217Z,31.01
2023-02-19T18:13:15.241Z,30.50
2023-02-19T18:15:43.823Z,30.09
2023-02-19T18:18:12.457Z,30.11
2023-02-19T18:20:41.236Z,29.99
2023-02-19T18:23:09.762Z,30.11
2023-02-19T18:25:38.574Z,30.33
2023-02-19T18:28:07.160Z,29.88
2023-02-19T18:30:37.332Z,29.74
2023-02-19T18:33:11.440Z,29.83
2023-02-19T18:35:40.307Z,29.83
2023-02-19T18:38:08.759Z,29.70
2023-02-19T18:40:37.201Z,29.58
2023-02-19T18:43:06.327Z,29.47
2023-02-19T18:45:37.364Z,29.37
2023-02-19T18:48:06.339Z,29.39
2023-02-19T18:50:35.152Z,29.39
2023-02-19T18:53:03.693Z,29.55
2023-02-19T18:55:32.451Z,29.75
2023-02-19T18:58:00.680Z,29.86
2023-02-19T19:00:29.304Z,29.96
2023-02-19T19:03:00.624Z,29.71
2023-02-19T19:05:29.617Z,30.00
2023-02-19T19:07:59.402Z,29.90
2023-02-19T19:10:28.829Z,29.66
2023-02-19T19:12:57.645Z,29.69
2023-02-19T19:15:26.570Z,29.73
2023-02-19T19:17:55.086Z,29.96
2023-02-19T19:20:25.144Z,29.92
2023-02-19T19:22:54.329Z,30.22
2023-02-19T19:25:24.005Z,30.13
2023-02-19T19:27:56.061Z,30.00
2023-02-19T19:30:24.778Z,30.39
2023-02-19T19:32:53.922Z,30.63
2023-02-19T19:35:24.483Z,30.73
2023-02-19T19:37:53.030Z,30.65
2023-02-19T19:40:22.017Z,30.81
2023-02-19T19:42:52.299Z,30.78
2023-02-19T19:45:21.216Z,31.12
2023-02-19T19:47:49.945Z,31.21
2023-02-19T19:50:19.401Z,31.32
2023-02-19T19:52:49.007Z,31.39
2023-02-19T19:55:21.823Z,31.62
2023-02-19T19:57:50.405Z,31.60
2023-02-19T20:00:19.855Z,31.50
2023-02-19T20:02:48.205Z,31.44
2023-02-19T20:05:16.937Z,31.71
2023-02-19T20:07:45.575Z,31.66
2023-02-19T20:10:16.106Z,31.70
2023-02-19T20:12:44.647Z,31.89
2023-02-19T20:15:14.071Z,31.97
2023-02-19T20:17:42.712Z,32.02
2023-02-19T20:20:12.087Z,32.07
2023-02-19T20:22:40.798Z,32.46
2023-02-19T20:25:09.663Z,32.41
2023-02-19T20:27:39.795Z,32.31
2023-02-19T20:30:11.381Z,32.54
2023-02-19T20:32:40.118Z,32.55
2023-02-19T20:35:09.179Z,32.37
2023-02-19T20:37:39.208Z,32.53
2023-02-19T20:40:08.857Z,32.58
2023-02-19T20:42:39.161Z,32.54
2023-02-19T20:45:08.164Z,32.13
2023-02-19T20:47:38.011Z,32.18
2023-02-19T20:50:07.925Z,31.96
2023-02-19T20:52:36.503Z,31.76
2023-02-19T20:55:05.970Z,31.88
2023-02-19T20:57:34.959Z,31.63
2023-02-19T21:00:05.680Z,31.63
2023-02-19T21:02:35.203Z,31.73
2023-02-19T21:05:04.449Z,31.90
2023-02-19T21:07:33.048Z,31.90
2023-02-19T21:10:01.500Z,32.07
2023-02-19T21:12:30.237Z,32.09
2023-02-19T21:15:01.404Z,32.15
2023-02-19T21:17:31.278Z,32.03
2023-02-19T21:19:59.615Z,32.37
2023-02-19T21:22:28.069Z,32.53
2023-02-19T21:24:56.598Z,32.41
2023-02-19T21:27:25.317Z,32.39
2023-02-19T21:29:53.683Z,32.40
2023-02-19T21:32:22.484Z,32.63
2023-02-19T21:34:52.150Z,32.49
2023-02-19T21:37:20.625Z,32.61
2023-02-19T21:39:49.125Z,32.79
2023-02-19T21:42:17.892Z,33.13
2023-02-19T21:44:46.633Z,33.10
2023-02-19T21:47:15.110Z,33.37
2023-02-19T21:49:43.888Z,33.11
2023-02-19T21:52:14.194Z,33.29
2023-02-19T21:54:42.590Z,33.49
2023-02-19T21:57:11.146Z,33.63
2023-02-19T21:59:39.590Z,33.41
2023-02-19T22:02:08.410Z,33.55
2023-02-19T22:04:36.713Z,33.71
2023-02-19T22:07:05.315Z,33.46
2023-02-19T22:09:35.115Z,33.44
2023-02-19T22:12:03.756Z,33.72
2023-02-19T22:14:31.928Z,33.44
2023-02-19T22:17:00.553Z,33.49
2023-02-19T22:19:28.910Z,33.50
2023-02-19T22:21:57.620Z,33.76
2023-02-19T22:24:25.888Z,33.57
2023-02-19T22:26:58.492Z,33.27
2023-02-19T22:29:27.193Z,33.58
2023-02-19T22:31:56.004Z,33.89
2023-02-19T22:34:24.402Z,33.98
2023-02-19T22:36:52.921Z,34.16
2023-02-19T22:39:22.862Z,34.08
2023-02-19T22:41:52.083Z,33.95
2023-02-19T22:44:21.670Z,34.03
2023-02-19T22:46:52.247Z,33.89
2023-02-19T22:49:21.255Z,34.05
2023-02-19T22:51:51.805Z,33.78
2023-02-19T22:54:22.070Z,34.26
2023-02-19T22:56:50.549Z,34.26
2023-02-19T22:59:18.825Z,34.11
2023-02-19T23:01:49.004Z,34.04
2023-02-19T23:04:17.767Z,34.18
2023-02-19T23:06:46.570Z,34.19
2023-02-19T23:09:17.368Z,34.41
2023-02-19T23:11:46.389Z,34.40
2023-02-19T23:14:17.796Z,34.16
2023-02-19T23:16:46.257Z,34.26
2023-02-19T23:19:16.938Z,34.14
2023-02-19T23:21:45.884Z,33.03
2023-02-19T23:24:15.478Z,33.92
2023-02-19T23:26:44.578Z,34.24
2023-02-19T23:29:13.169Z,34.16
2023-02-19T23:31:42.024Z,34.26
2023-02-19T23:34:10.422Z,34.20
2023-02-19T23:36:42.856Z,33.75
2023-02-19T23:39:12.116Z,33.86
2023-02-19T23:41:40.713Z,33.88
2023-02-19T23:44:09.131Z,33.79
2023-02-19T23:46:37.570Z,33.83
2023-02-19T23:49:06.076Z,33.80
2023-02-19T23:51:35.022Z,33.59
2023-02-19T23:54:05.078Z,33.55
2023-02-19T23:56:34.058Z,33.62
2023-02-19T23:59:02.696Z,33.69
